sensor_id;sensor_type;location;lat;lon;timestamp;pressure;altitude;pressure_sealevel;temperature
29701;BMP280;57917;51.380;-0.176;2023-09-19T00:03:08;100478.34;;;14.70
29701;BMP280;57917;51.380;-0.176;2023-09-19T00:08:58;100486.59;;;14.91
29701;BMP280;57917;51.380;-0.176;2023-09-19T00:14:46;100490.38;;;15.07
29701;BMP280;57917;51.380;-0.176;2023-09-19T00:20:37;100478.13;;;14.97
29701;BMP280;57917;51.380;-0.176;2023-09-19T00:26:25;100472.19;;;15.09
29701;BMP280;57917;51.380;-0.176;2023-09-19T00:32:13;100466.88;;;15.09
29701;BMP280;57917;51.380;-0.176;2023-09-19T00:38:00;100471.72;;;14.98
29701;BMP280;57917;51.380;-0.176;2023-09-19T00:43:47;100464.50;;;15.07
29701;BMP280;57917;51.380;-0.176;2023-09-19T00:49:38;100470.13;;;14.89
29701;BMP280;57917;51.380;-0.176;2023-09-19T00:55:25;100483.94;;;14.99
29701;BMP280;57917;51.380;-0.176;2023-09-19T01:01:16;100480.78;;;14.89
29701;BMP280;57917;51.380;-0.176;2023-09-19T01:07:03;100481.44;;;14.94
29701;BMP280;57917;51.380;-0.176;2023-09-19T01:31:29;100497.84;;;14.88
29701;BMP280;57917;51.380;-0.176;2023-09-19T01:37:21;100492.25;;;14.98
29701;BMP280;57917;51.380;-0.176;2023-09-19T01:43:25;100503.28;;;14.74
29701;BMP280;57917;51.380;-0.176;2023-09-19T01:49:36;100477.66;;;14.87
29701;BMP280;57917;51.380;-0.176;2023-09-19T01:55:26;100498.97;;;14.87
29701;BMP280;57917;51.380;-0.176;2023-09-19T02:01:18;100477.97;;;15.02
29701;BMP280;57917;51.380;-0.176;2023-09-19T02:07:05;100478.59;;;14.99
29701;BMP280;57917;51.380;-0.176;2023-09-19T02:12:52;100486.59;;;14.99
29701;BMP280;57917;51.380;-0.176;2023-09-19T02:18:39;100499.94;;;14.99
29701;BMP280;57917;51.380;-0.176;2023-09-19T02:24:27;100489.56;;;14.89
29701;BMP280;57917;51.380;-0.176;2023-09-19T02:30:14;100500.22;;;14.89
29701;BMP280;57917;51.380;-0.176;2023-09-19T02:36:02;100506.13;;;15.25
29701;BMP280;57917;51.380;-0.176;2023-09-19T02:41:50;100506.22;;;15.03
29701;BMP280;57917;51.380;-0.176;2023-09-19T02:47:37;100494.59;;;14.99
29701;BMP280;57917;51.380;-0.176;2023-09-19T02:53:24;100508.53;;;14.88
29701;BMP280;57917;51.380;-0.176;2023-09-19T02:59:11;100485.38;;;15.05
29701;BMP280;57917;51.380;-0.176;2023-09-19T03:04:58;100474.50;;;14.93
29701;BMP280;57917;51.380;-0.176;2023-09-19T03:10:47;100484.59;;;15.13
29701;BMP280;57917;51.380;-0.176;2023-09-19T03:16:35;100481.00;;;15.01
29701;BMP280;57917;51.380;-0.176;2023-09-19T03:22:24;100478.94;;;15.06
29701;BMP280;57917;51.380;-0.176;2023-09-19T03:28:11;100470.91;;;14.98
29701;BMP280;57917;51.380;-0.176;2023-09-19T03:33:58;100474.81;;;14.92
29701;BMP280;57917;51.380;-0.176;2023-09-19T03:39:45;100471.22;;;14.96
29701;BMP280;57917;51.380;-0.176;2023-09-19T03:45:33;100480.31;;;14.87
29701;BMP280;57917;51.380;-0.176;2023-09-19T03:51:20;100464.03;;;14.97
29701;BMP280;57917;51.380;-0.176;2023-09-19T03:57:08;100467.47;;;14.97
29701;BMP280;57917;51.380;-0.176;2023-09-19T04:02:55;100445.69;;;15.12
29701;BMP280;57917;51.380;-0.176;2023-09-19T04:08:43;100433.50;;;15.11
29701;BMP280;57917;51.380;-0.176;2023-09-19T04:14:31;100422.34;;;15.01
29701;BMP280;57917;51.380;-0.176;2023-09-19T04:20:18;100439.75;;;15.15
29701;BMP280;57917;51.380;-0.176;2023-09-19T04:26:12;100419.38;;;15.19
29701;BMP280;57917;51.380;-0.176;2023-09-19T04:31:59;100416.72;;;15.28
29701;BMP280;57917;51.380;-0.176;2023-09-19T04:37:45;100404.31;;;15.40
29701;BMP280;57917;51.380;-0.176;2023-09-19T04:43:34;100391.13;;;15.27
29701;BMP280;57917;51.380;-0.176;2023-09-19T04:49:21;100399.13;;;15.27
29701;BMP280;57917;51.380;-0.176;2023-09-19T04:55:09;100393.34;;;15.33
29701;BMP280;57917;51.380;-0.176;2023-09-19T05:00:57;100402.75;;;15.31
29701;BMP280;57917;51.380;-0.176;2023-09-19T05:06:43;100404.59;;;15.56
29701;BMP280;57917;51.380;-0.176;2023-09-19T05:12:33;100400.53;;;15.58
29701;BMP280;57917;51.380;-0.176;2023-09-19T05:18:24;100417.03;;;15.60
29701;BMP280;57917;51.380;-0.176;2023-09-19T05:24:11;100408.53;;;15.67
29701;BMP280;57917;51.380;-0.176;2023-09-19T05:30:00;100419.22;;;15.50
29701;BMP280;57917;51.380;-0.176;2023-09-19T05:35:48;100418.75;;;15.65
29701;BMP280;57917;51.380;-0.176;2023-09-19T05:41:38;100417.03;;;15.77
29701;BMP280;57917;51.380;-0.176;2023-09-19T05:47:26;100410.41;;;15.75
29701;BMP280;57917;51.380;-0.176;2023-09-19T05:53:13;100392.34;;;15.80
29701;BMP280;57917;51.380;-0.176;2023-09-19T05:59:01;100396.38;;;15.95
29701;BMP280;57917;51.380;-0.176;2023-09-19T06:04:50;100386.16;;;15.97
29701;BMP280;57917;51.380;-0.176;2023-09-19T06:10:39;100383.66;;;16.00
29701;BMP280;57917;51.380;-0.176;2023-09-19T06:16:27;100394.56;;;16.24
29701;BMP280;57917;51.380;-0.176;2023-09-19T06:22:19;100380.09;;;16.25
29701;BMP280;57917;51.380;-0.176;2023-09-19T06:28:06;100396.78;;;16.22
29701;BMP280;57917;51.380;-0.176;2023-09-19T06:33:55;100386.09;;;16.22
29701;BMP280;57917;51.380;-0.176;2023-09-19T06:39:42;100369.06;;;16.35
29701;BMP280;57917;51.380;-0.176;2023-09-19T06:45:29;100360.28;;;16.26
29701;BMP280;57917;51.380;-0.176;2023-09-19T06:51:32;100360.41;;;16.38
29701;BMP280;57917;51.380;-0.176;2023-09-19T06:57:21;100356.75;;;16.43
29701;BMP280;57917;51.380;-0.176;2023-09-19T07:03:13;100360.56;;;16.63
29701;BMP280;57917;51.380;-0.176;2023-09-19T07:09:00;100345.81;;;16.86
29701;BMP280;57917;51.380;-0.176;2023-09-19T07:14:50;100328.22;;;16.97
29701;BMP280;57917;51.380;-0.176;2023-09-19T07:20:40;100314.34;;;17.03
29701;BMP280;57917;51.380;-0.176;2023-09-19T07:26:32;100305.38;;;17.20
29701;BMP280;57917;51.380;-0.176;2023-09-19T07:32:19;100302.47;;;17.13
29701;BMP280;57917;51.380;-0.176;2023-09-19T07:38:07;100303.84;;;17.19
29701;BMP280;57917;51.380;-0.176;2023-09-19T07:43:58;100294.94;;;17.27
29701;BMP280;57917;51.380;-0.176;2023-09-19T07:49:47;100296.28;;;17.21
29701;BMP280;57917;51.380;-0.176;2023-09-19T07:55:34;100287.38;;;17.29
29701;BMP280;57917;51.380;-0.176;2023-09-19T08:01:21;100294.03;;;17.23
29701;BMP280;57917;51.380;-0.176;2023-09-19T08:07:10;100289.00;;;17.21
29701;BMP280;57917;51.380;-0.176;2023-09-19T08:12:58;100277.56;;;17.33
29701;BMP280;57917;51.380;-0.176;2023-09-19T08:18:49;100293.50;;;17.29
29701;BMP280;57917;51.380;-0.176;2023-09-19T08:24:44;100294.88;;;17.35
29701;BMP280;57917;51.380;-0.176;2023-09-19T08:30:31;100313.47;;;17.11
29701;BMP280;57917;51.380;-0.176;2023-09-19T08:36:21;100303.88;;;17.43
29701;BMP280;57917;51.380;-0.176;2023-09-19T08:49:03;100262.97;;;18.66
29701;BMP280;57917;51.380;-0.176;2023-09-19T08:55:27;100265.25;;;18.80
29701;BMP280;57917;51.380;-0.176;2023-09-19T09:08:45;100268.00;;;18.55
29701;BMP280;57917;51.380;-0.176;2023-09-19T09:14:44;100251.19;;;18.43
29701;BMP280;57917;51.380;-0.176;2023-09-19T09:28:10;100263.59;;;18.63
29701;BMP280;57917;51.380;-0.176;2023-09-19T09:34:02;100258.56;;;18.46
29701;BMP280;57917;51.380;-0.176;2023-09-19T09:53:12;100272.69;;;18.58
29701;BMP280;57917;51.380;-0.176;2023-09-19T09:59:57;100265.66;;;18.66
29701;BMP280;57917;51.380;-0.176;2023-09-19T10:05:46;100237.16;;;18.89
29701;BMP280;57917;51.380;-0.176;2023-09-19T10:11:47;100249.09;;;18.92
29701;BMP280;57917;51.380;-0.176;2023-09-19T10:17:49;100233.06;;;18.80
29701;BMP280;57917;51.380;-0.176;2023-09-19T10:23:47;100246.94;;;18.69
29701;BMP280;57917;51.380;-0.176;2023-09-19T10:29:36;100242.53;;;19.05
29701;BMP280;57917;51.380;-0.176;2023-09-19T10:35:26;100238.72;;;19.52
29701;BMP280;57917;51.380;-0.176;2023-09-19T10:41:21;100217.97;;;19.84
29701;BMP280;57917;51.380;-0.176;2023-09-19T10:47:11;100233.56;;;19.78
29701;BMP280;57917;51.380;-0.176;2023-09-19T10:53:03;100228.00;;;19.87
29701;BMP280;57917;51.380;-0.176;2023-09-19T10:59:36;100231.16;;;19.73
29701;BMP280;57917;51.380;-0.176;2023-09-19T11:06:34;100242.88;;;19.65
29701;BMP280;57917;51.380;-0.176;2023-09-19T11:24:33;100240.28;;;19.22
29701;BMP280;57917;51.380;-0.176;2023-09-19T11:43:30;100241.38;;;19.33
29701;BMP280;57917;51.380;-0.176;2023-09-19T11:49:29;100248.88;;;19.28
29701;BMP280;57917;51.380;-0.176;2023-09-19T11:55:28;100255.69;;;19.25
29701;BMP280;57917;51.380;-0.176;2023-09-19T12:01:53;100249.81;;;19.20
29701;BMP280;57917;51.380;-0.176;2023-09-19T12:14:11;100255.88;;;19.32
29701;BMP280;57917;51.380;-0.176;2023-09-19T12:19:58;100247.38;;;19.30
29701;BMP280;57917;51.380;-0.176;2023-09-19T12:25:49;100247.47;;;19.18
29701;BMP280;57917;51.380;-0.176;2023-09-19T12:32:11;100256.69;;;19.33
29701;BMP280;57917;51.380;-0.176;2023-09-19T12:38:28;100247.81;;;19.17
29701;BMP280;57917;51.380;-0.176;2023-09-19T12:44:54;100240.53;;;19.17
29701;BMP280;57917;51.380;-0.176;2023-09-19T12:51:35;100233.72;;;19.04
29701;BMP280;57917;51.380;-0.176;2023-09-19T13:05:19;100251.84;;;18.95
29701;BMP280;57917;51.380;-0.176;2023-09-19T13:18:54;100248.38;;;18.79
29701;BMP280;57917;51.380;-0.176;2023-09-19T13:24:48;100231.59;;;18.82
29701;BMP280;57917;51.380;-0.176;2023-09-19T13:39:02;100225.53;;;18.85
29701;BMP280;57917;51.380;-0.176;2023-09-19T14:08:16;100234.56;;;19.08
29701;BMP280;57917;51.380;-0.176;2023-09-19T14:21:35;100248.53;;;19.29
29701;BMP280;57917;51.380;-0.176;2023-09-19T14:34:39;100243.31;;;19.52
29701;BMP280;57917;51.380;-0.176;2023-09-19T14:40:42;100249.97;;;19.42
29701;BMP280;57917;51.380;-0.176;2023-09-19T14:59:58;100245.66;;;19.53
29701;BMP280;57917;51.380;-0.176;2023-09-19T15:06:13;100236.56;;;19.42
29701;BMP280;57917;51.380;-0.176;2023-09-19T15:12:04;100244.91;;;19.37
29701;BMP280;57917;51.380;-0.176;2023-09-19T15:17:51;100238.91;;;19.59
29701;BMP280;57917;51.380;-0.176;2023-09-19T15:23:41;100238.38;;;19.38
29701;BMP280;57917;51.380;-0.176;2023-09-19T15:29:29;100248.56;;;19.64
29701;BMP280;57917;51.380;-0.176;2023-09-19T15:35:21;100225.91;;;19.61
29701;BMP280;57917;51.380;-0.176;2023-09-19T15:41:34;100212.75;;;19.56
29701;BMP280;57917;51.380;-0.176;2023-09-19T15:47:39;100216.63;;;19.59
29701;BMP280;57917;51.380;-0.176;2023-09-19T15:53:42;100222.97;;;19.66
29701;BMP280;57917;51.380;-0.176;2023-09-19T15:59:39;100217.97;;;19.49
29701;BMP280;57917;51.380;-0.176;2023-09-19T16:12:02;100207.44;;;19.60
29701;BMP280;57917;51.380;-0.176;2023-09-19T16:17:49;100206.41;;;19.64
29701;BMP280;57917;51.380;-0.176;2023-09-19T16:23:36;100195.63;;;19.45
29701;BMP280;57917;51.380;-0.176;2023-09-19T16:29:23;100216.91;;;19.38
29701;BMP280;57917;51.380;-0.176;2023-09-19T16:35:11;100208.38;;;19.33
29701;BMP280;57917;51.380;-0.176;2023-09-19T16:40:59;100192.06;;;19.26
29701;BMP280;57917;51.380;-0.176;2023-09-19T16:46:45;100186.53;;;19.34
29701;BMP280;57917;51.380;-0.176;2023-09-19T16:52:34;100199.53;;;19.32
29701;BMP280;57917;51.380;-0.176;2023-09-19T16:58:20;100211.97;;;19.40
29701;BMP280;57917;51.380;-0.176;2023-09-19T17:04:11;100236.81;;;19.22
29701;BMP280;57917;51.380;-0.176;2023-09-19T17:10:03;100234.84;;;19.34
29701;BMP280;57917;51.380;-0.176;2023-09-19T17:15:59;100238.06;;;19.24
29701;BMP280;57917;51.380;-0.176;2023-09-19T17:21:48;100236.13;;;19.09
29701;BMP280;57917;51.380;-0.176;2023-09-19T17:27:35;100241.03;;;19.07
29701;BMP280;57917;51.380;-0.176;2023-09-19T17:33:50;100234.03;;;18.87
29701;BMP280;57917;51.380;-0.176;2023-09-19T17:39:48;100237.25;;;18.93
29701;BMP280;57917;51.380;-0.176;2023-09-19T17:45:50;100230.91;;;18.85
29701;BMP280;57917;51.380;-0.176;2023-09-19T17:51:37;100248.94;;;18.73
29701;BMP280;57917;51.380;-0.176;2023-09-19T17:57:25;100256.84;;;18.81
29701;BMP280;57917;51.380;-0.176;2023-09-19T18:03:12;100260.47;;;18.73
29701;BMP280;57917;51.380;-0.176;2023-09-19T18:09:00;100261.38;;;18.65
29701;BMP280;57917;51.380;-0.176;2023-09-19T18:14:48;100235.13;;;18.43
29701;BMP280;57917;51.380;-0.176;2023-09-19T18:20:35;100239.72;;;18.30
29701;BMP280;57917;51.380;-0.176;2023-09-19T18:26:24;100237.56;;;18.48
29701;BMP280;57917;51.380;-0.176;2023-09-19T18:32:12;100242.47;;;18.46
29701;BMP280;57917;51.380;-0.176;2023-09-19T18:37:59;100241.75;;;18.61
29701;BMP280;57917;51.380;-0.176;2023-09-19T18:43:48;100244.41;;;18.61
29701;BMP280;57917;51.380;-0.176;2023-09-19T18:49:35;100247.78;;;18.58
29701;BMP280;57917;51.380;-0.176;2023-09-19T18:55:22;100251.47;;;18.53
29701;BMP280;57917;51.380;-0.176;2023-09-19T19:01:11;100244.38;;;18.45
29701;BMP280;57917;51.380;-0.176;2023-09-19T19:06:58;100232.84;;;18.45
29701;BMP280;57917;51.380;-0.176;2023-09-19T19:12:46;100232.66;;;18.38
29701;BMP280;57917;51.380;-0.176;2023-09-19T19:18:33;100230.41;;;18.40
29701;BMP280;57917;51.380;-0.176;2023-09-19T19:24:20;100229.38;;;18.44
29701;BMP280;57917;51.380;-0.176;2023-09-19T19:30:07;100249.41;;;18.47
29701;BMP280;57917;51.380;-0.176;2023-09-19T19:36:10;100243.16;;;18.43
29701;BMP280;57917;51.380;-0.176;2023-09-19T19:49:52;100257.03;;;18.33
29701;BMP280;57917;51.380;-0.176;2023-09-19T19:56:34;100258.78;;;18.41
29701;BMP280;57917;51.380;-0.176;2023-09-19T20:01:57;100254.44;;;18.36
29701;BMP280;57917;51.380;-0.176;2023-09-19T20:07:44;100255.59;;;18.23
29701;BMP280;57917;51.380;-0.176;2023-09-19T20:13:35;100248.41;;;18.27
29701;BMP280;57917;51.380;-0.176;2023-09-19T20:19:30;100251.34;;;18.22
29701;BMP280;57917;51.380;-0.176;2023-09-19T20:25:20;100243.06;;;18.27
29701;BMP280;57917;51.380;-0.176;2023-09-19T20:31:18;100239.69;;;18.42
29701;BMP280;57917;51.380;-0.176;2023-09-19T20:37:06;100244.75;;;18.44
29701;BMP280;57917;51.380;-0.176;2023-09-19T20:42:56;100229.78;;;18.31
29701;BMP280;57917;51.380;-0.176;2023-09-19T20:48:50;100245.84;;;18.43
29701;BMP280;57917;51.380;-0.176;2023-09-19T20:55:00;100233.38;;;18.23
29701;BMP280;57917;51.380;-0.176;2023-09-19T21:00:51;100219.44;;;18.29
29701;BMP280;57917;51.380;-0.176;2023-09-19T21:06:41;100232.16;;;18.20
29701;BMP280;57917;51.380;-0.176;2023-09-19T21:12:31;100228.91;;;18.27
29701;BMP280;57917;51.380;-0.176;2023-09-19T21:18:21;100227.91;;;18.31
29701;BMP280;57917;51.380;-0.176;2023-09-19T21:24:08;100215.13;;;18.40
29701;BMP280;57917;51.380;-0.176;2023-09-19T21:29:58;100222.06;;;18.41
29701;BMP280;57917;51.380;-0.176;2023-09-19T21:35:46;100203.22;;;18.53
29701;BMP280;57917;51.380;-0.176;2023-09-19T21:41:39;100206.59;;;18.50
29701;BMP280;57917;51.380;-0.176;2023-09-19T21:47:27;100195.56;;;18.52
29701;BMP280;57917;51.380;-0.176;2023-09-19T21:53:15;100174.88;;;18.52
29701;BMP280;57917;51.380;-0.176;2023-09-19T21:59:02;100185.00;;;18.59
29701;BMP280;57917;51.380;-0.176;2023-09-19T22:04:53;100176.31;;;18.62
29701;BMP280;57917;51.380;-0.176;2023-09-19T22:10:48;100158.03;;;18.52
29701;BMP280;57917;51.380;-0.176;2023-09-19T22:16:42;100166.69;;;18.61
29701;BMP280;57917;51.380;-0.176;2023-09-19T22:22:30;100155.19;;;18.60
29701;BMP280;57917;51.380;-0.176;2023-09-19T22:28:22;100144.63;;;18.52
29701;BMP280;57917;51.380;-0.176;2023-09-19T22:34:09;100151.00;;;18.47
29701;BMP280;57917;51.380;-0.176;2023-09-19T22:40:03;100158.13;;;18.55
29701;BMP280;57917;51.380;-0.176;2023-09-19T22:46:03;100142.97;;;18.47
29701;BMP280;57917;51.380;-0.176;2023-09-19T22:51:57;100133.28;;;18.43
29701;BMP280;57917;51.380;-0.176;2023-09-19T22:57:46;100145.22;;;18.61
29701;BMP280;57917;51.380;-0.176;2023-09-19T23:03:36;100145.91;;;18.58
29701;BMP280;57917;51.380;-0.176;2023-09-19T23:17:08;100133.34;;;18.46
29701;BMP280;57917;51.380;-0.176;2023-09-19T23:23:09;100135.44;;;18.53
29701;BMP280;57917;51.380;-0.176;2023-09-19T23:29:03;100138.81;;;18.50
29701;BMP280;57917;51.380;-0.176;2023-09-19T23:34:50;100144.41;;;18.45
29701;BMP280;57917;51.380;-0.176;2023-09-19T23:40:37;100141.00;;;18.60
29701;BMP280;57917;51.380;-0.176;2023-09-19T23:46:25;100141.00;;;18.60
29701;BMP280;57917;51.380;-0.176;2023-09-19T23:52:23;100134.22;;;18.50
29701;BMP280;57917;51.380;-0.176;2023-09-19T23:58:09;100141.94;;;18.52
